Scott City, MO

5:19 PM CDT on July 29, 2016 (GMT -0500)
Cape Girardeau Regional | | Change Station

Elev 341 ft 37.23 °N, 89.57 °W | Updated 26 minutes ago

Clear
Clear
84 °F
Feels Like 88 °F
N
4
Wind Variable Wind from NNW

Today
High -- | Low -- °F
--% Chance of Precip.
Yesterday
High -- | Low -- °F
Precip. -- in
Pressure 29.90 in
Visibility 10.0 miles
Clouds Clear
Heat Index 88 °F
Dew Point 70 °F
Humidity 63%
Rainfall 0.00 in
Snow Depth Not available.
6:00 AM 8:07 PM
Waning Crescent, 18% visible
METAR KCGI 292153Z AUTO 33003KT 10SM CLR 29/21 A2991 RMK AO2 RAE2059 SLP125 P0000 T02890211
Pressure 29.90 in
Visibility 10.0 miles
Clouds Clear
Heat Index 88 °F
Dew Point 70 °F
Humidity 63%
Rainfall 0.00 in
Snow Depth Not available.
6:00 AM 8:07 PM
Waning Crescent, 18% visible
METAR KCGI 292153Z AUTO 33003KT 10SM CLR 29/21 A2991 RMK AO2 RAE2059 SLP125 P0000 T02890211

10-Day Weather Forecast

Almanac

Astronomy

Jul. 29, 2016 Rise Set
Actual Time
Civil Twilight
Nautical Twilight
Astronomical Twilight
Moon
Length of Visible Light
Length of Day
Tomorrow will be .
, % of the Moon is Illuminated

Today's Extremes

State Highs State Lows

Community

WunderPhotos

Upload Photos

1,928,429 photos uploaded!

WunderBlog® & News

Nearby

Air Quality

  Air Quality AQ Index Pollutant
Not available.

Snow Depth

Station Depth Elevation

Earthquake Activity

City Distance Mag. Time & Date
Minimum magnitude displayed is 2.5.

Coastal Water Temperatures

Place Temperature

Stations

Nearby Weather Stations

Station Location Temp. Windchill Dew Point Humidity Wind Precip. Elev Updated Type
                   

Watches & Warnings

There are currently no watches in effect.